EDT,Max TemperatureF,Mean TemperatureF,Min TemperatureF,Max Dew PointF,MeanDew PointF,Min DewpointF,Max Humidity, Mean Humidity, Min Humidity, Max Sea Level PressureIn, Mean Sea Level PressureIn, Min Sea Level PressureIn, Max VisibilityMiles, Mean VisibilityMiles, Min VisibilityMiles, Max Wind SpeedMPH, Mean Wind SpeedMPH, Max Gust SpeedMPH,PrecipitationIn, CloudCover, Events, WindDirDegrees
2012-10-1,69,58,46,52,47,44,90,72,49,29.97,29.83,29.76,10,10,10,13,3,21,0.00,0,,241
2012-10-2,69,60,52,58,55,49,90,84,58,30.06,30.03,29.98,10,7,1,5,1,,0.72,7,Rain,183
2012-10-3,72,66,60,65,61,57,94,89,78,30.14,30.07,30.02,10,5,1,6,2,,0.01,8,Rain,26
2012-10-4,69,66,62,63,62,60,94,88,78,30.16,30.10,30.05,10,8,2,7,2,,0.20,8,Rain,51
2012-10-5,78,67,57,63,57,52,94,83,42,30.06,30.02,29.94,10,5,0,9,1,,0.01,3,Fog,294
2012-10-6,78,64,48,63,54,43,94,80,48,29.96,29.86,29.73,10,6,0,16,2,26,0.03,3,Fog,241
2012-10-7,57,47,39,46,41,37,93,82,53,30.09,30.06,29.97,10,7,0,6,0,,0.18,5,Fog-Rain,267
2012-10-8,55,48,42,46,41,39,93,83,55,30.30,30.19,30.09,10,5,0,6,0,,0.00,4,Fog,235
2012-10-9,59,54,48,48,46,44,87,75,62,30.28,30.20,30.12,10,10,10,12,5,,0.00,7,,43
2012-10-10,66,58,51,61,53,39,94,84,63,30.12,29.90,29.75,10,7,1,18,3,29,0.20,7,Rain,15
2012-10-11,59,50,41,40,35,31,82,60,36,30.14,30.06,29.89,10,10,10,12,4,21,0.00,1,,285
2012-10-12,54,44,33,42,33,24,93,80,38,30.40,30.11,30.04,10,6,0,15,2,23,0.04,3,Fog-Rain,3
2012-10-13,53,40,28,33,25,19,93,62,29,30.51,30.43,30.32,10,10,9,8,1,,0.00,1,,225
2012-10-14,68,54,43,55,48,36,86,71,52,30.30,30.11,29.98,10,10,6,13,4,21,0.06,5,Rain,202
2012-10-15,75,66,60,61,58,54,90,76,57,29.95,29.73,29.63,10,9,2,17,7,30,0.21,7,Rain,193
2012-10-16,62,50,39,57,39,31,90,61,39,29.91,29.73,29.61,10,10,10,18,6,30,0.01,2,,312
2012-10-17,62,47,32,40,33,28,93,74,28,30.02,29.96,29.92,10,7,0,6,1,,0.00,2,Fog,325
2012-10-18,66,50,35,51,40,32,93,79,47,30.10,30.07,30.02,10,8,0,10,1,,0.00,4,Fog,173
2012-10-19,68,62,57,64,58,53,94,88,73,30.04,29.89,29.72,10,6,2,13,3,21,0.67,8,Rain,135
2012-10-20,75,66,57,63,58,39,94,81,34,29.77,29.69,29.63,10,5,0,15,2,20,0.04,5,Fog-Rain-Thunderstorm,199
2012-10-21,64,54,43,40,37,34,82,51,34,29.95,29.89,29.81,10,10,10,15,4,23,0.00,2,,279
2012-10-22,66,58,53,41,39,37,59,50,39,30.03,29.97,29.94,10,10,10,14,6,26,0.00,1,,275
2012-10-23,64,52,42,51,43,38,90,69,45,30.13,30.09,30.04,10,10,8,7,1,,0.06,5,Rain,269
2012-10-24,57,53,51,51,43,38,90,67,53,30.22,30.16,30.12,10,10,7,7,2,,0.00,8,,33
2012-10-25,63,56,48,44,42,35,83,63,42,30.30,30.27,30.22,10,10,10,7,1,,0.00,7,,158
2012-10-26,66,57,48,52,47,43,87,73,59,30.27,30.21,30.13,10,10,10,6,1,,0.00,7,,189
2012-10-27,66,62,57,52,51,46,81,72,59,30.12,30.03,29.98,10,10,10,10,1,,0.00,6,,53
2012-10-28,57,54,51,50,47,42,86,76,62,29.97,29.87,29.71,10,9,4,21,10,29,0.00,7,Rain,42
2012-10-29,69,60,52,61,54,48,88,80,64,29.66,29.25,28.96,10,5,2,36,20,52,0.67,8,Rain,61
2012-10-30,66,60,53,55,53,48,94,78,52,29.52,29.42,29.24,10,8,2,16,8,29,0.56,7,Rain,140
2012-10-31,57,52,48,54,45,37,88,75,57,29.58,29.52,29.47,10,10,9,9,5,39,0.01,8,Rain,197